sensor_id;sensor_type;location;lat;lon;timestamp;pressure;altitude;pressure_sealevel;temperature;humidity
16094;BME280;8151;47.824;12.092;2023-02-28T00:01:48;96737.84;;;-0.03;69.94
16094;BME280;8151;47.824;12.092;2023-02-28T00:04:18;96739.69;;;-0.05;69.43
16094;BME280;8151;47.824;12.092;2023-02-28T00:06:46;96736.25;;;-0.05;69.51
16094;BME280;8151;47.824;12.092;2023-02-28T00:09:14;96739.97;;;-0.09;69.73
16094;BME280;8151;47.824;12.092;2023-02-28T00:11:42;96739.41;;;-0.14;69.88
16094;BME280;8151;47.824;12.092;2023-02-28T00:14:11;96736.44;;;-0.23;69.99
16094;BME280;8151;47.824;12.092;2023-02-28T00:16:39;96734.22;;;-0.29;70.01
16094;BME280;8151;47.824;12.092;2023-02-28T00:19:08;96729.09;;;-0.30;70.12
16094;BME280;8151;47.824;12.092;2023-02-28T00:21:37;96734.59;;;-0.35;69.91
16094;BME280;8151;47.824;12.092;2023-02-28T00:24:07;96736.41;;;-0.37;70.32
16094;BME280;8151;47.824;12.092;2023-02-28T00:26:36;96737.75;;;-0.44;70.36
16094;BME280;8151;47.824;12.092;2023-02-28T00:29:04;96739.75;;;-0.49;70.32
16094;BME280;8151;47.824;12.092;2023-02-28T00:31:32;96738.19;;;-0.52;70.35
16094;BME280;8151;47.824;12.092;2023-02-28T00:34:01;96738.09;;;-0.50;70.38
16094;BME280;8151;47.824;12.092;2023-02-28T00:36:29;96735.50;;;-0.50;70.04
16094;BME280;8151;47.824;12.092;2023-02-28T00:38:59;96729.28;;;-0.48;70.09
16094;BME280;8151;47.824;12.092;2023-02-28T00:41:27;96724.91;;;-0.47;70.25
16094;BME280;8151;47.824;12.092;2023-02-28T00:43:56;96720.06;;;-0.53;70.36
16094;BME280;8151;47.824;12.092;2023-02-28T00:46:24;96722.75;;;-0.55;70.17
16094;BME280;8151;47.824;12.092;2023-02-28T00:48:53;96715.06;;;-0.56;70.28
16094;BME280;8151;47.824;12.092;2023-02-28T00:51:21;96714.31;;;-0.58;70.26
16094;BME280;8151;47.824;12.092;2023-02-28T00:53:50;96710.06;;;-0.60;70.06
16094;BME280;8151;47.824;12.092;2023-02-28T00:56:20;96705.22;;;-0.66;69.91
16094;BME280;8151;47.824;12.092;2023-02-28T00:58:48;96705.38;;;-0.69;69.94
16094;BME280;8151;47.824;12.092;2023-02-28T01:01:17;96705.47;;;-0.70;70.16
16094;BME280;8151;47.824;12.092;2023-02-28T01:03:45;96699.63;;;-0.74;69.89
16094;BME280;8151;47.824;12.092;2023-02-28T01:06:13;96699.06;;;-0.79;70.08
16094;BME280;8151;47.824;12.092;2023-02-28T01:08:42;96694.88;;;-0.82;70.01
16094;BME280;8151;47.824;12.092;2023-02-28T01:11:11;96688.31;;;-0.87;69.72
16094;BME280;8151;47.824;12.092;2023-02-28T01:13:42;96695.31;;;-0.89;69.80
16094;BME280;8151;47.824;12.092;2023-02-28T01:16:10;96689.38;;;-0.91;69.76
16094;BME280;8151;47.824;12.092;2023-02-28T01:18:39;96692.72;;;-0.89;69.73
16094;BME280;8151;47.824;12.092;2023-02-28T01:21:10;96690.97;;;-0.89;69.63
16094;BME280;8151;47.824;12.092;2023-02-28T01:23:40;96693.66;;;-0.90;69.63
16094;BME280;8151;47.824;12.092;2023-02-28T01:26:10;96692.16;;;-0.94;69.38
16094;BME280;8151;47.824;12.092;2023-02-28T01:28:39;96690.69;;;-0.98;69.70
16094;BME280;8151;47.824;12.092;2023-02-28T01:31:09;96689.94;;;-1.01;69.66
16094;BME280;8151;47.824;12.092;2023-02-28T01:33:38;96691.59;;;-1.00;69.48
16094;BME280;8151;47.824;12.092;2023-02-28T01:36:09;96690.56;;;-0.97;69.54
16094;BME280;8151;47.824;12.092;2023-02-28T01:38:39;96688.16;;;-1.00;69.39
16094;BME280;8151;47.824;12.092;2023-02-28T01:41:10;96688.91;;;-0.98;69.44
16094;BME280;8151;47.824;12.092;2023-02-28T01:44:00;96691.50;;;-0.98;69.46
16094;BME280;8151;47.824;12.092;2023-02-28T01:46:34;96687.41;;;-1.02;69.65
16094;BME280;8151;47.824;12.092;2023-02-28T01:49:07;96679.63;;;-1.02;69.47
16094;BME280;8151;47.824;12.092;2023-02-28T01:51:41;96689.00;;;-1.00;69.50
16094;BME280;8151;47.824;12.092;2023-02-28T01:54:15;96686.47;;;-1.01;69.43
16094;BME280;8151;47.824;12.092;2023-02-28T01:56:46;96686.28;;;-1.12;69.77
16094;BME280;8151;47.824;12.092;2023-02-28T01:59:22;96684.88;;;-1.18;69.71
16094;BME280;8151;47.824;12.092;2023-02-28T02:01:54;96684.22;;;-1.22;69.97
16094;BME280;8151;47.824;12.092;2023-02-28T02:04:25;96681.69;;;-1.23;69.97
16094;BME280;8151;47.824;12.092;2023-02-28T02:06:53;96677.25;;;-1.21;69.94
16094;BME280;8151;47.824;12.092;2023-02-28T02:09:22;96679.03;;;-1.22;69.97
16094;BME280;8151;47.824;12.092;2023-02-28T02:11:51;96679.03;;;-1.22;69.80
16094;BME280;8151;47.824;12.092;2023-02-28T02:14:40;96677.25;;;-1.21;69.83
16094;BME280;8151;47.824;12.092;2023-02-28T02:17:20;96673.44;;;-1.30;69.75
16094;BME280;8151;47.824;12.092;2023-02-28T02:20:29;96674.63;;;-1.35;70.21
16094;BME280;8151;47.824;12.092;2023-02-28T02:23:41;96671.16;;;-1.36;70.05
16094;BME280;8151;47.824;12.092;2023-02-28T02:29:42;96674.03;;;-1.41;70.09
16094;BME280;8151;47.824;12.092;2023-02-28T02:32:51;96666.91;;;-1.37;70.02
16094;BME280;8151;47.824;12.092;2023-02-28T02:35:27;96673.75;;;-1.36;70.10
16094;BME280;8151;47.824;12.092;2023-02-28T02:38:02;96679.38;;;-1.44;69.97
16094;BME280;8151;47.824;12.092;2023-02-28T02:40:38;96677.50;;;-1.56;70.26
16094;BME280;8151;47.824;12.092;2023-02-28T02:43:15;96673.41;;;-1.60;70.33
16094;BME280;8151;47.824;12.092;2023-02-28T02:45:48;96665.78;;;-1.63;70.40
16094;BME280;8151;47.824;12.092;2023-02-28T02:48:20;96669.72;;;-1.72;70.53
16094;BME280;8151;47.824;12.092;2023-02-28T02:50:54;96682.28;;;-1.80;70.62
16094;BME280;8151;47.824;12.092;2023-02-28T02:53:27;96673.91;;;-1.85;70.72
16094;BME280;8151;47.824;12.092;2023-02-28T02:55:59;96679.38;;;-1.90;70.79
16094;BME280;8151;47.824;12.092;2023-02-28T02:58:32;96669.91;;;-1.91;70.73
16094;BME280;8151;47.824;12.092;2023-02-28T03:01:03;96677.25;;;-1.83;70.63
16094;BME280;8151;47.824;12.092;2023-02-28T03:03:34;96666.88;;;-1.83;70.73
16094;BME280;8151;47.824;12.092;2023-02-28T03:06:04;96670.50;;;-1.86;70.54
16094;BME280;8151;47.824;12.092;2023-02-28T03:08:35;96672.16;;;-1.85;70.45
16094;BME280;8151;47.824;12.092;2023-02-28T03:11:06;96665.47;;;-1.89;70.56
16094;BME280;8151;47.824;12.092;2023-02-28T03:13:49;96668.81;;;-1.87;70.62
16094;BME280;8151;47.824;12.092;2023-02-28T03:16:33;96672.16;;;-1.85;70.38
16094;BME280;8151;47.824;12.092;2023-02-28T03:19:16;96667.72;;;-1.83;70.51
16094;BME280;8151;47.824;12.092;2023-02-28T03:21:55;96668.31;;;-1.77;70.27
16094;BME280;8151;47.824;12.092;2023-02-28T03:24:32;96668.47;;;-1.81;70.26
16094;BME280;8151;47.824;12.092;2023-02-28T03:27:07;96668.66;;;-1.84;70.25
16094;BME280;8151;47.824;12.092;2023-02-28T03:29:39;96660.94;;;-1.85;70.41
16094;BME280;8151;47.824;12.092;2023-02-28T03:32:16;96672.16;;;-1.85;70.32
16094;BME280;8151;47.824;12.092;2023-02-28T03:34:55;96673.84;;;-1.84;70.34
16094;BME280;8151;47.824;12.092;2023-02-28T03:37:29;96674.06;;;-1.88;70.30
16094;BME280;8151;47.824;12.092;2023-02-28T03:40:04;96674.19;;;-1.90;70.21
16094;BME280;8151;47.824;12.092;2023-02-28T03:42:36;96672.50;;;-1.91;70.35
16094;BME280;8151;47.824;12.092;2023-02-28T03:45:11;96674.50;;;-1.96;70.41
16094;BME280;8151;47.824;12.092;2023-02-28T03:47:45;96678.59;;;-2.08;70.36
16094;BME280;8151;47.824;12.092;2023-02-28T03:50:18;96676.31;;;-2.30;70.63
16094;BME280;8151;47.824;12.092;2023-02-28T03:52:53;96678.97;;;-2.47;71.01
16094;BME280;8151;47.824;12.092;2023-02-28T03:55:32;96684.31;;;-2.68;71.20
16094;BME280;8151;47.824;12.092;2023-02-28T03:58:07;96690.22;;;-2.82;71.62
16094;BME280;8151;47.824;12.092;2023-02-28T04:00:41;96692.50;;;-2.93;71.69
16094;BME280;8151;47.824;12.092;2023-02-28T04:03:13;96692.00;;;-3.00;71.56
16094;BME280;8151;47.824;12.092;2023-02-28T04:05:49;96690.09;;;-2.96;71.70
16094;BME280;8151;47.824;12.092;2023-02-28T04:08:20;96692.59;;;-2.94;71.54
16094;BME280;8151;47.824;12.092;2023-02-28T04:10:55;96699.38;;;-2.92;71.30
16094;BME280;8151;47.824;12.092;2023-02-28T04:13:25;96702.97;;;-2.94;71.11
16094;BME280;8151;47.824;12.092;2023-02-28T04:15:54;96703.19;;;-2.99;71.42
16094;BME280;8151;47.824;12.092;2023-02-28T04:18:22;96700.44;;;-2.96;71.16
16094;BME280;8151;47.824;12.092;2023-02-28T04:20:51;96700.44;;;-2.96;71.56
16094;BME280;8151;47.824;12.092;2023-02-28T04:23:20;96705.00;;;-3.01;71.16
16094;BME280;8151;47.824;12.092;2023-02-28T04:25:49;96712.38;;;-3.11;71.16
16094;BME280;8151;47.824;12.092;2023-02-28T04:28:18;96712.38;;;-3.28;71.69
16094;BME280;8151;47.824;12.092;2023-02-28T04:30:46;96712.25;;;-3.25;71.50
16094;BME280;8151;47.824;12.092;2023-02-28T04:33:14;96716.81;;;-3.13;71.22
16094;BME280;8151;47.824;12.092;2023-02-28T04:35:43;96711.31;;;-3.07;71.13
16094;BME280;8151;47.824;12.092;2023-02-28T04:38:11;96713.47;;;-2.98;70.93
16094;BME280;8151;47.824;12.092;2023-02-28T04:40:41;96708.28;;;-2.98;70.55
16094;BME280;8151;47.824;12.092;2023-02-28T04:43:09;96704.88;;;-2.98;70.55
16094;BME280;8151;47.824;12.092;2023-02-28T04:45:38;96708.28;;;-2.98;70.60
16094;BME280;8151;47.824;12.092;2023-02-28T04:48:06;96708.22;;;-2.96;70.55
16094;BME280;8151;47.824;12.092;2023-02-28T04:50:36;96715.16;;;-2.97;70.52
16094;BME280;8151;47.824;12.092;2023-02-28T04:53:05;96712.94;;;-3.04;70.56
16094;BME280;8151;47.824;12.092;2023-02-28T04:55:33;96716.13;;;-2.99;70.69
16094;BME280;8151;47.824;12.092;2023-02-28T04:58:03;96719.31;;;-2.94;70.61
16094;BME280;8151;47.824;12.092;2023-02-28T05:00:32;96713.00;;;-2.88;70.53
16094;BME280;8151;47.824;12.092;2023-02-28T05:03:00;96716.28;;;-2.85;70.35
16094;BME280;8151;47.824;12.092;2023-02-28T05:05:29;96720.53;;;-2.84;70.25
16094;BME280;8151;47.824;12.092;2023-02-28T05:07:57;96723.13;;;-2.84;70.38
16094;BME280;8151;47.824;12.092;2023-02-28T05:10:25;96727.53;;;-2.86;70.13
16094;BME280;8151;47.824;12.092;2023-02-28T05:12:54;96729.69;;;-2.94;70.35
16094;BME280;8151;47.824;12.092;2023-02-28T05:15:24;96729.75;;;-2.95;70.66
16094;BME280;8151;47.824;12.092;2023-02-28T05:17:52;96736.91;;;-3.01;70.56
16094;BME280;8151;47.824;12.092;2023-02-28T05:20:21;96731.88;;;-3.04;70.57
16094;BME280;8151;47.824;12.092;2023-02-28T05:22:49;96739.78;;;-3.07;70.76
16094;BME280;8151;47.824;12.092;2023-02-28T05:25:20;96733.84;;;-3.09;70.59
16094;BME280;8151;47.824;12.092;2023-02-28T05:27:56;96733.41;;;-3.17;70.93
16094;BME280;8151;47.824;12.092;2023-02-28T05:30:26;96738.06;;;-3.24;70.60
16094;BME280;8151;47.824;12.092;2023-02-28T05:32:55;96739.19;;;-3.29;70.68
16094;BME280;8151;47.824;12.092;2023-02-28T05:35:26;96738.84;;;-3.41;71.07
16094;BME280;8151;47.824;12.092;2023-02-28T05:37:55;96742.94;;;-3.54;70.99
16094;BME280;8151;47.824;12.092;2023-02-28T05:40:23;96744.75;;;-3.56;71.60
16094;BME280;8151;47.824;12.092;2023-02-28T05:42:51;96743.41;;;-3.46;71.24
16094;BME280;8151;47.824;12.092;2023-02-28T05:45:20;96759.31;;;-3.36;70.80
16094;BME280;8151;47.824;12.092;2023-02-28T05:47:53;96756.72;;;-3.36;70.62
16094;BME280;8151;47.824;12.092;2023-02-28T05:50:21;96764.66;;;-3.39;70.52
16094;BME280;8151;47.824;12.092;2023-02-28T05:52:50;96760.44;;;-3.42;70.79
16094;BME280;8151;47.824;12.092;2023-02-28T05:55:18;96767.25;;;-3.39;70.46
16094;BME280;8151;47.824;12.092;2023-02-28T05:57:47;96771.25;;;-3.33;70.39
16094;BME280;8151;47.824;12.092;2023-02-28T06:00:16;96776.16;;;-3.27;70.65
16094;BME280;8151;47.824;12.092;2023-02-28T06:02:44;96775.09;;;-3.23;70.12
16094;BME280;8151;47.824;12.092;2023-02-28T06:05:15;96778.47;;;-3.21;69.96
16094;BME280;8151;47.824;12.092;2023-02-28T06:07:44;96779.06;;;-3.16;70.41
16094;BME280;8151;47.824;12.092;2023-02-28T06:10:12;96779.75;;;-3.12;70.06
16094;BME280;8151;47.824;12.092;2023-02-28T06:12:41;96774.44;;;-3.09;70.06
16094;BME280;8151;47.824;12.092;2023-02-28T06:15:12;96783.03;;;-3.09;69.75
16094;BME280;8151;47.824;12.092;2023-02-28T06:17:41;96788.91;;;-3.05;70.12
16094;BME280;8151;47.824;12.092;2023-02-28T06:20:11;96790.50;;;-3.03;70.01
16094;BME280;8151;47.824;12.092;2023-02-28T06:22:42;96789.53;;;-3.00;70.00
16094;BME280;8151;47.824;12.092;2023-02-28T06:25:10;96794.53;;;-2.97;69.91
16094;BME280;8151;47.824;12.092;2023-02-28T06:27:39;96798.66;;;-2.93;69.90
16094;BME280;8151;47.824;12.092;2023-02-28T06:30:08;96800.34;;;-2.92;69.74
16094;BME280;8151;47.824;12.092;2023-02-28T06:32:37;96805.47;;;-2.90;69.77
16094;BME280;8151;47.824;12.092;2023-02-28T06:35:07;96806.16;;;-2.87;70.02
16094;BME280;8151;47.824;12.092;2023-02-28T06:37:36;96812.00;;;-2.83;69.75
16094;BME280;8151;47.824;12.092;2023-02-28T06:40:10;96812.09;;;-2.85;70.05
16094;BME280;8151;47.824;12.092;2023-02-28T06:42:40;96806.75;;;-2.82;69.74
16094;BME280;8151;47.824;12.092;2023-02-28T06:45:09;96812.56;;;-2.77;69.96
16094;BME280;8151;47.824;12.092;2023-02-28T06:47:39;96811.16;;;-2.66;69.76
16094;BME280;8151;47.824;12.092;2023-02-28T06:50:09;96819.50;;;-2.60;69.73
16094;BME280;8151;47.824;12.092;2023-02-28T06:52:39;96817.34;;;-2.51;69.64
16094;BME280;8151;47.824;12.092;2023-02-28T06:55:09;96815.13;;;-2.42;69.48
16094;BME280;8151;47.824;12.092;2023-02-28T06:57:37;96805.28;;;-2.35;69.45
16094;BME280;8151;47.824;12.092;2023-02-28T07:00:08;96819.63;;;-2.28;69.42
16094;BME280;8151;47.824;12.092;2023-02-28T07:02:37;96812.47;;;-2.23;69.24
16094;BME280;8151;47.824;12.092;2023-02-28T07:05:06;96815.50;;;-2.14;69.17
16094;BME280;8151;47.824;12.092;2023-02-28T07:07:34;96816.94;;;-2.09;69.36
16094;BME280;8151;47.824;12.092;2023-02-28T07:10:05;96812.19;;;-2.01;69.18
16094;BME280;8151;47.824;12.092;2023-02-28T07:12:36;96821.06;;;-1.89;68.96
16094;BME280;8151;47.824;12.092;2023-02-28T07:15:05;96819.78;;;-1.80;68.98
16094;BME280;8151;47.824;12.092;2023-02-28T07:17:34;96832.22;;;-1.71;68.85
16094;BME280;8151;47.824;12.092;2023-02-28T07:20:02;96826.56;;;-1.62;68.85
16094;BME280;8151;47.824;12.092;2023-02-28T07:22:32;96824.50;;;-1.55;68.78
16094;BME280;8151;47.824;12.092;2023-02-28T07:25:00;96823.22;;;-1.48;68.73
16094;BME280;8151;47.824;12.092;2023-02-28T07:27:32;96821.97;;;-1.41;68.71
16094;BME280;8151;47.824;12.092;2023-02-28T07:30:03;96823.13;;;-1.30;68.75
16094;BME280;8151;47.824;12.092;2023-02-28T07:32:32;96826.41;;;-1.27;68.70
16094;BME280;8151;47.824;12.092;2023-02-28T07:35:00;96829.69;;;-1.23;68.83
16094;BME280;8151;47.824;12.092;2023-02-28T07:37:33;96829.41;;;-1.19;68.68
16094;BME280;8151;47.824;12.092;2023-02-28T07:40:04;96831.03;;;-1.16;68.88
16094;BME280;8151;47.824;12.092;2023-02-28T07:42:35;96833.63;;;-1.16;69.02
16094;BME280;8151;47.824;12.092;2023-02-28T07:45:07;96836.38;;;-1.19;69.20
16094;BME280;8151;47.824;12.092;2023-02-28T07:47:38;96841.41;;;-1.16;69.03
16094;BME280;8151;47.824;12.092;2023-02-28T07:50:09;96834.19;;;-1.11;69.14
16094;BME280;8151;47.824;12.092;2023-02-28T07:52:39;96832.19;;;-1.06;69.05
16094;BME280;8151;47.824;12.092;2023-02-28T07:55:09;96830.00;;;-0.97;69.10
16094;BME280;8151;47.824;12.092;2023-02-28T07:57:38;96833.00;;;-0.89;69.05
16094;BME280;8151;47.824;12.092;2023-02-28T08:00:09;96835.44;;;-0.86;69.14
16094;BME280;8151;47.824;12.092;2023-02-28T08:02:39;96838.50;;;-0.80;68.92
16094;BME280;8151;47.824;12.092;2023-02-28T08:05:08;96832.78;;;-0.70;69.17
16094;BME280;8151;47.824;12.092;2023-02-28T08:07:37;96840.81;;;-0.59;68.97
16094;BME280;8151;47.824;12.092;2023-02-28T08:10:07;96830.81;;;-0.51;68.61
16094;BME280;8151;47.824;12.092;2023-02-28T08:12:36;96833.16;;;-0.46;68.98
16094;BME280;8151;47.824;12.092;2023-02-28T08:15:09;96828.44;;;-0.40;68.92
16094;BME280;8151;47.824;12.092;2023-02-28T08:17:37;96829.19;;;-0.37;68.96
16094;BME280;8151;47.824;12.092;2023-02-28T08:20:07;96826.34;;;-0.33;69.00
16094;BME280;8151;47.824;12.092;2023-02-28T08:22:37;96832.16;;;-0.29;69.11
16094;BME280;8151;47.824;12.092;2023-02-28T08:25:06;96836.19;;;-0.24;69.23
16094;BME280;8151;47.824;12.092;2023-02-28T08:27:35;96832.38;;;-0.18;69.12
16094;BME280;8151;47.824;12.092;2023-02-28T08:30:05;96836.22;;;-0.09;69.15
16094;BME280;8151;47.824;12.092;2023-02-28T08:32:35;96838.28;;;0.00;69.05
16094;BME280;8151;47.824;12.092;2023-02-28T08:35:05;96838.56;;;0.10;68.86
16094;BME280;8151;47.824;12.092;2023-02-28T08:37:33;96839.03;;;0.16;69.02
16094;BME280;8151;47.824;12.092;2023-02-28T08:40:02;96834.94;;;0.27;68.91
16094;BME280;8151;47.824;12.092;2023-02-28T08:42:32;96840.41;;;0.36;68.70
16094;BME280;8151;47.824;12.092;2023-02-28T08:45:00;96845.81;;;0.48;68.80
16094;BME280;8151;47.824;12.092;2023-02-28T08:47:29;96846.16;;;0.56;68.68
16094;BME280;8151;47.824;12.092;2023-02-28T08:49:59;96848.94;;;0.67;68.69
16094;BME280;8151;47.824;12.092;2023-02-28T08:52:27;96854.25;;;0.80;68.19
16094;BME280;8151;47.824;12.092;2023-02-28T08:54:55;96860.44;;;0.92;68.17
16094;BME280;8151;47.824;12.092;2023-02-28T08:57:24;96858.09;;;1.02;68.45
16094;BME280;8151;47.824;12.092;2023-02-28T08:59:54;96866.25;;;1.10;68.20
16094;BME280;8151;47.824;12.092;2023-02-28T09:02:22;96861.22;;;1.21;68.12
16094;BME280;8151;47.824;12.092;2023-02-28T09:04:51;96868.97;;;1.35;68.03
16094;BME280;8151;47.824;12.092;2023-02-28T09:07:21;96870.97;;;1.45;68.35
16094;BME280;8151;47.824;12.092;2023-02-28T09:09:49;96878.63;;;1.48;68.03
16094;BME280;8151;47.824;12.092;2023-02-28T09:12:27;96877.66;;;1.49;68.23
16094;BME280;8151;47.824;12.092;2023-02-28T09:15:00;96881.88;;;1.51;68.40
16094;BME280;8151;47.824;12.092;2023-02-28T09:17:37;96885.81;;;1.57;68.52
16094;BME280;8151;47.824;12.092;2023-02-28T09:20:07;96881.16;;;1.62;68.33
16094;BME280;8151;47.824;12.092;2023-02-28T09:22:37;96885.03;;;1.69;68.18
16094;BME280;8151;47.824;12.092;2023-02-28T09:25:06;96886.31;;;1.76;67.96
16094;BME280;8151;47.824;12.092;2023-02-28T09:27:34;96890.09;;;1.85;68.23
16094;BME280;8151;47.824;12.092;2023-02-28T09:30:05;96883.63;;;1.91;67.91
16094;BME280;8151;47.824;12.092;2023-02-28T09:32:33;96894.25;;;1.88;67.90
16094;BME280;8151;47.824;12.092;2023-02-28T09:35:02;96886.16;;;1.92;68.28
16094;BME280;8151;47.824;12.092;2023-02-28T09:37:31;96889.91;;;2.01;67.78
16094;BME280;8151;47.824;12.092;2023-02-28T09:40:00;96897.22;;;2.09;67.78
16094;BME280;8151;47.824;12.092;2023-02-28T09:42:32;96892.53;;;2.14;67.55
16094;BME280;8151;47.824;12.092;2023-02-28T09:45:06;96895.78;;;2.17;67.54
16094;BME280;8151;47.824;12.092;2023-02-28T09:47:45;96901.84;;;2.18;67.77
16094;BME280;8151;47.824;12.092;2023-02-28T09:50:20;96901.00;;;2.17;67.94
16094;BME280;8151;47.824;12.092;2023-02-28T09:52:52;96899.84;;;2.22;68.44
16094;BME280;8151;47.824;12.092;2023-02-28T09:55:28;96897.66;;;2.28;68.39
16094;BME280;8151;47.824;12.092;2023-02-28T09:58:16;96895.38;;;2.36;68.74
16094;BME280;8151;47.824;12.092;2023-02-28T10:00:54;96900.28;;;2.41;68.63
16094;BME280;8151;47.824;12.092;2023-02-28T10:03:29;96898.41;;;2.43;68.63
16094;BME280;8151;47.824;12.092;2023-02-28T10:06:02;96907.88;;;2.44;68.73
16094;BME280;8151;47.824;12.092;2023-02-28T10:08:36;96906.03;;;2.46;68.86
16094;BME280;8151;47.824;12.092;2023-02-28T10:11:12;96911.03;;;2.49;68.74
16094;BME280;8151;47.824;12.092;2023-02-28T10:13:50;96920.66;;;2.49;68.74
16094;BME280;8151;47.824;12.092;2023-02-28T10:16:24;96911.34;;;2.45;68.57
16094;BME280;8151;47.824;12.092;2023-02-28T10:18:57;96926.41;;;2.41;68.59
16094;BME280;8151;47.824;12.092;2023-02-28T10:21:32;96917.09;;;2.37;68.57
16094;BME280;8151;47.824;12.092;2023-02-28T10:24:07;96926.28;;;2.30;68.49
16094;BME280;8151;47.824;12.092;2023-02-28T10:26:43;96922.63;;;2.20;68.84
16094;BME280;8151;47.824;12.092;2023-02-28T10:29:13;96927.22;;;2.16;68.72
16094;BME280;8151;47.824;12.092;2023-02-28T10:31:42;96937.09;;;2.11;69.02
16094;BME280;8151;47.824;12.092;2023-02-28T10:34:12;96939.81;;;2.09;68.86
16094;BME280;8151;47.824;12.092;2023-02-28T10:36:41;96931.25;;;2.07;69.03
16094;BME280;8151;47.824;12.092;2023-02-28T10:39:36;96934.19;;;2.03;68.57
16094;BME280;8151;47.824;12.092;2023-02-28T10:42:19;96943.56;;;1.92;68.74
16094;BME280;8151;47.824;12.092;2023-02-28T10:44:48;96937.69;;;1.89;68.73
16094;BME280;8151;47.824;12.092;2023-02-28T10:47:19;96942.91;;;1.89;68.40
16094;BME280;8151;47.824;12.092;2023-02-28T10:49:49;96938.34;;;1.92;68.15
16094;BME280;8151;47.824;12.092;2023-02-28T10:52:37;96944.06;;;1.97;68.12
16094;BME280;8151;47.824;12.092;2023-02-28T10:55:20;96940.03;;;2.06;67.75
16094;BME280;8151;47.824;12.092;2023-02-28T10:57:51;96943.06;;;2.13;67.84
16094;BME280;8151;47.824;12.092;2023-02-28T11:00:23;96931.38;;;2.19;67.21
16094;BME280;8151;47.824;12.092;2023-02-28T11:02:52;96939.03;;;2.22;67.42
16094;BME280;8151;47.824;12.092;2023-02-28T11:05:28;96937.22;;;2.22;67.18
16094;BME280;8151;47.824;12.092;2023-02-28T11:08:01;96934.44;;;2.25;67.20
16094;BME280;8151;47.824;12.092;2023-02-28T11:10:32;96937.78;;;2.27;67.28
16094;BME280;8151;47.824;12.092;2023-02-28T11:13:03;96931.50;;;2.30;67.22
16094;BME280;8151;47.824;12.092;2023-02-28T11:15:33;96932.03;;;2.35;67.21
16094;BME280;8151;47.824;12.092;2023-02-28T11:18:08;96935.88;;;2.42;67.18
16094;BME280;8151;47.824;12.092;2023-02-28T11:20:48;96929.53;;;2.46;67.34
16094;BME280;8151;47.824;12.092;2023-02-28T11:23:18;96925.25;;;2.45;67.29
16094;BME280;8151;47.824;12.092;2023-02-28T11:25:50;96929.66;;;2.45;67.24
16094;BME280;8151;47.824;12.092;2023-02-28T11:28:28;96919.19;;;2.45;67.38
16094;BME280;8151;47.824;12.092;2023-02-28T11:31:03;96928.41;;;2.50;67.40
16094;BME280;8151;47.824;12.092;2023-02-28T11:33:40;96924.81;;;2.51;67.44
16094;BME280;8151;47.824;12.092;2023-02-28T11:36:11;96928.41;;;2.50;67.45
16094;BME280;8151;47.824;12.092;2023-02-28T11:38:40;96934.44;;;2.51;67.39
16094;BME280;8151;47.824;12.092;2023-02-28T11:41:18;96921.28;;;2.52;67.33
16094;BME280;8151;47.824;12.092;2023-02-28T11:44:00;96925.47;;;2.55;67.11
16094;BME280;8151;47.824;12.092;2023-02-28T11:46:37;96923.81;;;2.54;67.16
16094;BME280;8151;47.824;12.092;2023-02-28T11:49:21;96922.75;;;2.56;67.19
16094;BME280;8151;47.824;12.092;2023-02-28T11:51:53;96926.09;;;2.59;67.28
16094;BME280;8151;47.824;12.092;2023-02-28T11:54:49;96918.16;;;2.60;67.27
16094;BME280;8151;47.824;12.092;2023-02-28T11:57:33;96912.06;;;2.60;67.03
16094;BME280;8151;47.824;12.092;2023-02-28T12:00:19;96913.03;;;2.59;67.11
16094;BME280;8151;47.824;12.092;2023-02-28T12:03:04;96918.44;;;2.55;67.16
16094;BME280;8151;47.824;12.092;2023-02-28T12:05:44;96915.00;;;2.55;67.19
16094;BME280;8151;47.824;12.092;2023-02-28T12:08:26;96913.66;;;2.49;67.39
16094;BME280;8151;47.824;12.092;2023-02-28T12:11:06;96915.34;;;2.50;67.36
16094;BME280;8151;47.824;12.092;2023-02-28T12:13:46;96918.69;;;2.52;67.30
16094;BME280;8151;47.824;12.092;2023-02-28T12:19:16;96912.28;;;2.56;67.20
16094;BME280;8151;47.824;12.092;2023-02-28T12:27:56;96906.97;;;2.58;66.97
16094;BME280;8151;47.824;12.092;2023-02-28T12:30:27;96913.34;;;2.54;67.00
16094;BME280;8151;47.824;12.092;2023-02-28T12:33:03;96901.41;;;2.50;66.97
16094;BME280;8151;47.824;12.092;2023-02-28T12:35:34;96904.88;;;2.50;67.10
16094;BME280;8151;47.824;12.092;2023-02-28T12:38:05;96905.09;;;2.60;66.98
16094;BME280;8151;47.824;12.092;2023-02-28T12:40:43;96895.38;;;2.62;66.72
16094;BME280;8151;47.824;12.092;2023-02-28T12:43:15;96886.06;;;2.58;66.73
16094;BME280;8151;47.824;12.092;2023-02-28T12:45:47;96890.97;;;2.63;66.89
16094;BME280;8151;47.824;12.092;2023-02-28T12:48:24;96884.25;;;2.71;66.50
16094;BME280;8151;47.824;12.092;2023-02-28T12:50:54;96888.44;;;2.74;66.54
16094;BME280;8151;47.824;12.092;2023-02-28T12:53:26;96892.84;;;2.73;66.42
16094;BME280;8151;47.824;12.092;2023-02-28T12:56:07;96886.78;;;2.73;66.33
16094;BME280;8151;47.824;12.092;2023-02-28T12:58:40;96884.88;;;2.75;66.47
16094;BME280;8151;47.824;12.092;2023-02-28T13:01:39;96882.91;;;2.79;66.18
16094;BME280;8151;47.824;12.092;2023-02-28T13:07:53;96882.44;;;2.98;66.00
16094;BME280;8151;47.824;12.092;2023-02-28T13:10:38;96876.28;;;2.99;65.98
16094;BME280;8151;47.824;12.092;2023-02-28T13:13:14;96875.53;;;2.96;66.01
16094;BME280;8151;47.824;12.092;2023-02-28T13:15:58;96877.00;;;3.01;66.04
16094;BME280;8151;47.824;12.092;2023-02-28T13:18:35;96873.34;;;3.03;65.97
16094;BME280;8151;47.824;12.092;2023-02-28T13:21:08;96872.06;;;3.09;66.37
16094;BME280;8151;47.824;12.092;2023-02-28T13:23:56;96874.03;;;3.18;65.93
16094;BME280;8151;47.824;12.092;2023-02-28T13:29:32;96879.06;;;3.45;65.71
16094;BME280;8151;47.824;12.092;2023-02-28T13:32:31;96884.00;;;3.61;65.25
16094;BME280;8151;47.824;12.092;2023-02-28T13:38:13;96868.31;;;3.61;65.57
16094;BME280;8151;47.824;12.092;2023-02-28T13:40:44;96870.97;;;3.72;65.78
16094;BME280;8151;47.824;12.092;2023-02-28T13:43:16;96868.38;;;3.84;65.23
16094;BME280;8151;47.824;12.092;2023-02-28T13:46:11;96865.22;;;4.03;65.28
16094;BME280;8151;47.824;12.092;2023-02-28T13:48:40;96867.50;;;4.19;65.43
16094;BME280;8151;47.824;12.092;2023-02-28T13:51:36;96870.75;;;4.33;64.52
16094;BME280;8151;47.824;12.092;2023-02-28T13:54:21;96867.34;;;4.44;64.74
16094;BME280;8151;47.824;12.092;2023-02-28T13:57:04;96865.78;;;4.53;64.75